Main page
METAR-TAF:

METAR-TAF

Airports :

Milan–Malpensa Airport

Milan, Italy

latitude: 45-37N, longitude: 008-44E, elevation: 234 m

Current weather observation

The report was made 14 minutes ago, at 13:50 UTC
Wind 4 kt from the South, varying between East and West/Southwest
Temperature 29°C
Humidity 48%
Pressure 1016 hPa
Visibility 10 km or more
no clouds below 1500 m and no cumulonimbus

METAR: LIMC 221350Z 17004KT 090V240 CAVOK 29/17 Q1016 NOSIG

Time: 16:04 (14:04 UTC)

Forecast

The report was made 3 hours and 4 minutes ago, at 11:00 UTC
Forecast valid from 22 at 12 UTC to 23 at 18 UTC
Wind 5 kt from variable directions
Visibility 10 km or more
no clouds below 1500 m and no cumulonimbus

TAF: LIMC 221100Z 2212/2318 VRB05KT CAVOK

Weather observations and forecasts of more than 4000 airports (METAR and TAF reports).

The available stations are represented by yellow and red dots on the map.

Hover mouse over dot to see the name of the station.

Then click to see weather observations and forecasts.

To change the map : click on the green buttons with a black cross to zoom in, on the green button with a dash to zoom out, or on the green arrows for adjacent maps.


METAR-TAF: